createdAt,value
2023-01-17T00:01:11.464Z,93369.38
2023-01-17T00:03:57.918Z,93376.53
2023-01-17T00:06:44.037Z,93363.44
2023-01-17T00:09:30.392Z,93365.59
2023-01-17T00:11:57.492Z,93361.28
2023-01-17T00:14:23.947Z,93364.59
2023-01-17T00:16:50.559Z,93377.25
2023-01-17T00:19:35.854Z,93373.72
2023-01-17T00:22:20.826Z,93367.34
2023-01-17T00:25:05.757Z,93363.22
2023-01-17T00:27:32.138Z,93372.56
2023-01-17T00:29:58.500Z,93376.91
2023-01-17T00:32:24.882Z,93378.94
2023-01-17T00:34:51.408Z,93378.16
2023-01-17T00:37:17.796Z,93375.63
2023-01-17T00:39:44.171Z,93377.22
2023-01-17T00:42:10.555Z,93380.16
2023-01-17T00:44:55.491Z,93381.50
2023-01-17T00:47:40.432Z,93388.72
2023-01-17T00:50:25.347Z,93395.06
2023-01-17T00:53:10.439Z,93391.91
2023-01-17T00:55:55.286Z,93408.28
2023-01-17T00:58:40.170Z,93411.16
2023-01-17T01:01:25.338Z,93407.63
2023-01-17T01:04:10.474Z,93405.22
2023-01-17T01:06:55.397Z,93403.97
2023-01-17T01:09:40.324Z,93397.47
2023-01-17T01:12:25.320Z,93401.44
2023-01-17T01:15:10.507Z,93397.00
2023-01-17T01:17:55.380Z,93385.72
2023-01-17T01:20:40.406Z,93395.41
2023-01-17T01:23:25.375Z,93389.13
2023-01-17T01:26:10.649Z,93384.00
2023-01-17T01:28:55.432Z,93374.19
2023-01-17T01:31:40.380Z,93373.50
2023-01-17T01:34:06.943Z,93387.28
2023-01-17T01:36:33.584Z,93385.44
2023-01-17T01:39:00.122Z,93392.28
2023-01-17T01:41:26.538Z,93395.59
2023-01-17T01:43:54.408Z,93391.16
2023-01-17T01:46:20.861Z,93393.44
2023-01-17T01:48:50.135Z,93397.19
2023-01-17T01:51:19.520Z,93392.28
2023-01-17T01:53:47.869Z,93393.88
2023-01-17T01:56:15.386Z,93387.97
2023-01-17T01:58:45.698Z,93386.59
2023-01-17T02:01:13.351Z,93388.97
2023-01-17T02:03:40.974Z,93386.91
2023-01-17T02:06:14.513Z,93378.94
2023-01-17T02:08:41.287Z,93371.00
2023-01-17T02:11:07.708Z,93375.44
2023-01-17T02:13:34.173Z,93365.28
2023-01-17T02:16:23.880Z,93363.22
2023-01-17T02:18:56.402Z,93365.38
2023-01-17T02:21:28.213Z,93362.28
2023-01-17T02:24:13.619Z,93362.38
2023-01-17T02:26:48.065Z,93371.84
2023-01-17T02:29:17.543Z,93370.81
2023-01-17T02:31:44.048Z,93375.03
2023-01-17T02:34:15.489Z,93377.66
2023-01-17T02:37:00.902Z,93372.94
2023-01-17T02:39:32.971Z,93379.56
2023-01-17T02:42:04.577Z,93376.63
2023-01-17T02:44:39.575Z,93370.22
2023-01-17T02:47:18.796Z,93369.78
2023-01-17T02:49:45.277Z,93369.22
2023-01-17T02:52:30.271Z,93373.44
2023-01-17T02:55:03.041Z,93376.63
2023-01-17T02:57:32.565Z,93383.44
2023-01-17T03:00:02.018Z,93386.31
2023-01-17T03:02:31.670Z,93386.88
2023-01-17T03:05:23.844Z,93386.63
2023-01-17T03:07:51.900Z,93392.69
2023-01-17T03:10:19.511Z,93386.88
2023-01-17T03:12:46.048Z,93394.41
2023-01-17T03:15:13.622Z,93385.53
2023-01-17T03:17:42.961Z,93397.59
2023-01-17T03:20:09.998Z,93390.75
2023-01-17T03:22:36.451Z,93401.25
2023-01-17T03:25:02.908Z,93396.34
2023-01-17T03:27:29.397Z,93402.75
2023-01-17T03:29:55.860Z,93392.81
2023-01-17T03:32:22.309Z,93394.41
2023-01-17T03:34:48.834Z,93385.19
2023-01-17T03:37:15.295Z,93376.28
2023-01-17T03:39:41.733Z,93381.66
2023-01-17T03:42:08.159Z,93373.47
2023-01-17T03:44:34.589Z,93372.00
2023-01-17T03:47:01.045Z,93372.81
2023-01-17T03:49:27.534Z,93379.97
2023-01-17T03:51:54.146Z,93373.72
2023-01-17T03:54:20.584Z,93376.22
2023-01-17T03:56:47.274Z,93374.41
2023-01-17T03:59:13.713Z,93366.84
2023-01-17T04:01:40.302Z,93367.66
2023-01-17T04:04:06.757Z,93370.53
2023-01-17T04:06:33.179Z,93366.31
2023-01-17T04:08:59.631Z,93373.38
2023-01-17T04:11:26.059Z,93369.38
2023-01-17T04:13:52.503Z,93376.22
2023-01-17T04:16:20.282Z,93366.66
2023-01-17T04:18:46.740Z,93355.63
2023-01-17T04:21:13.183Z,93361.78
2023-01-17T04:23:39.789Z,93359.16
2023-01-17T04:26:06.293Z,93370.22
2023-01-17T04:28:32.792Z,93367.13
2023-01-17T04:31:00.137Z,93362.94
2023-01-17T04:33:26.730Z,93354.50
2023-01-17T04:35:53.910Z,93359.88
2023-01-17T04:38:20.453Z,93351.78
2023-01-17T04:40:46.924Z,93346.44
2023-01-17T04:43:13.346Z,93352.16
2023-01-17T04:45:39.863Z,93351.69
2023-01-17T04:48:06.884Z,93351.22
2023-01-17T04:50:33.640Z,93356.44
2023-01-17T04:53:00.549Z,93362.72
2023-01-17T04:55:27.001Z,93365.34
2023-01-17T04:57:53.480Z,93360.34
2023-01-17T05:00:21.564Z,93359.31
2023-01-17T05:02:49.445Z,93353.25
2023-01-17T05:05:15.900Z,93361.69
2023-01-17T05:07:42.337Z,93350.75
2023-01-17T05:10:09.424Z,93350.50
2023-01-17T05:12:35.973Z,93358.16
2023-01-17T05:15:02.398Z,93352.91
2023-01-17T05:17:28.821Z,93345.06
2023-01-17T05:19:55.261Z,93340.34
2023-01-17T05:22:21.713Z,93335.91
2023-01-17T05:24:48.302Z,93333.53
2023-01-17T05:27:14.937Z,93330.34
2023-01-17T05:29:41.412Z,93326.16
2023-01-17T05:32:07.907Z,93329.88
2023-01-17T05:34:35.067Z,93319.38
2023-01-17T05:37:01.596Z,93326.81
2023-01-17T05:39:28.128Z,93317.91
2023-01-17T05:41:54.571Z,93321.09
2023-01-17T05:44:21.060Z,93318.47
2023-01-17T05:46:47.593Z,93310.59
2023-01-17T05:49:14.039Z,93311.19
2023-01-17T05:51:40.470Z,93298.84
2023-01-17T05:54:07.156Z,93306.94
2023-01-17T05:56:33.956Z,93312.66
2023-01-17T05:59:00.408Z,93318.72
2023-01-17T06:01:26.933Z,93313.13
2023-01-17T06:03:53.402Z,93313.69
2023-01-17T06:06:19.867Z,93317.09
2023-01-17T06:08:46.304Z,93315.53
2023-01-17T06:11:12.799Z,93313.69
2023-01-17T06:13:39.216Z,93307.09
2023-01-17T06:16:05.794Z,93302.66
2023-01-17T06:18:32.468Z,93301.50
2023-01-17T06:20:58.907Z,93298.41
2023-01-17T06:23:25.826Z,93293.75
2023-01-17T06:25:52.526Z,93286.44
2023-01-17T06:28:21.828Z,93288.84
2023-01-17T06:30:48.361Z,93285.97
2023-01-17T06:33:15.343Z,93287.59
2023-01-17T06:35:49.109Z,93276.53
2023-01-17T06:38:15.553Z,93286.78
2023-01-17T06:40:42.020Z,93275.25
2023-01-17T06:43:08.463Z,93275.00
2023-01-17T06:45:35.415Z,93269.00
2023-01-17T06:48:04.121Z,93275.25
2023-01-17T06:50:31.210Z,93274.25
2023-01-17T06:52:59.652Z,93271.38
2023-01-17T06:55:28.892Z,93272.97
2023-01-17T06:57:59.606Z,93279.72
2023-01-17T07:00:30.319Z,93271.84
2023-01-17T07:02:56.871Z,93275.00
2023-01-17T07:05:23.567Z,93279.00
2023-01-17T07:07:50.074Z,93277.19
2023-01-17T07:10:16.778Z,93276.72
2023-01-17T07:12:43.307Z,93279.34
2023-01-17T07:15:10.159Z,93270.19
2023-01-17T07:17:36.631Z,93276.81
2023-01-17T07:20:03.301Z,93278.38
2023-01-17T07:22:30.078Z,93280.00
2023-01-17T07:24:58.784Z,93277.38
2023-01-17T07:27:25.834Z,93276.09
2023-01-17T07:29:54.234Z,93284.75
2023-01-17T07:32:20.830Z,93285.31
2023-01-17T07:34:47.354Z,93285.31
2023-01-17T07:37:15.356Z,93293.28
2023-01-17T07:39:42.012Z,93297.94
2023-01-17T07:42:09.333Z,93298.28
2023-01-17T07:44:36.064Z,93290.66
2023-01-17T07:47:02.655Z,93297.47
2023-01-17T07:49:29.159Z,93300.66
2023-01-17T07:51:55.637Z,93293.03
2023-01-17T07:54:22.174Z,93293.66
2023-01-17T07:56:49.034Z,93290.16
2023-01-17T07:59:15.644Z,93295.72
2023-01-17T08:01:42.230Z,93293.97
2023-01-17T08:04:09.439Z,93295.09
2023-01-17T08:06:37.421Z,93293.75
2023-01-17T08:09:03.841Z,93292.72
2023-01-17T08:11:30.309Z,93291.44
2023-01-17T08:14:00.215Z,93291.13
2023-01-17T08:16:28.715Z,93295.72
2023-01-17T08:18:55.768Z,93291.97
2023-01-17T08:21:22.651Z,93292.53
2023-01-17T08:23:49.953Z,93297.78
2023-01-17T08:26:23.396Z,93295.88
2023-01-17T08:28:56.907Z,93300.06
2023-01-17T08:31:24.189Z,93301.88
2023-01-17T08:33:50.700Z,93304.84
2023-01-17T08:36:17.411Z,93312.00
2023-01-17T08:38:43.845Z,93320.66
2023-01-17T08:41:10.281Z,93324.00
2023-01-17T08:43:36.766Z,93323.50
2023-01-17T08:46:03.315Z,93327.19
2023-01-17T08:48:29.793Z,93320.31
2023-01-17T08:50:59.838Z,93319.41
2023-01-17T08:53:26.274Z,93322.69
2023-01-17T08:56:02.528Z,93321.56
2023-01-17T08:58:30.686Z,93330.53
2023-01-17T09:01:01.532Z,93341.03
2023-01-17T09:03:28.144Z,93341.03
2023-01-17T09:06:04.972Z,93346.47
2023-01-17T09:08:31.560Z,93339.69
2023-01-17T09:10:58.050Z,93342.66
2023-01-17T09:13:24.558Z,93348.69
2023-01-17T09:15:51.177Z,93345.03
2023-01-17T09:18:17.626Z,93346.16
2023-01-17T09:20:44.071Z,93351.72
2023-01-17T09:23:10.518Z,93356.75
2023-01-17T09:25:37.146Z,93357.31
2023-01-17T09:28:03.670Z,93354.75
2023-01-17T09:30:30.183Z,93363.19
2023-01-17T09:32:56.711Z,93360.56
2023-01-17T09:35:23.625Z,93366.38
2023-01-17T09:37:50.855Z,93373.53
2023-01-17T09:40:20.073Z,93373.22
2023-01-17T09:42:48.213Z,93372.09
2023-01-17T09:45:16.481Z,93380.53
2023-01-17T09:47:47.331Z,93382.44
2023-01-17T09:50:16.593Z,93384.38
2023-01-17T09:52:43.383Z,93395.66
2023-01-17T09:55:13.983Z,93392.16
2023-01-17T09:57:40.426Z,93394.22
2023-01-17T10:00:07.752Z,93391.59
2023-01-17T10:02:34.267Z,93401.84
2023-01-17T10:05:07.142Z,93395.44
2023-01-17T10:07:42.815Z,93406.84
2023-01-17T10:10:18.137Z,93396.50
2023-01-17T10:12:50.829Z,93404.06
2023-01-17T10:15:29.811Z,93415.69
2023-01-17T10:17:56.214Z,93405.19
2023-01-17T10:20:41.373Z,93407.91
2023-01-17T10:23:26.696Z,93412.66
2023-01-17T10:25:56.242Z,93425.94
2023-01-17T10:28:31.777Z,93426.66
2023-01-17T10:31:00.990Z,93441.88
2023-01-17T10:33:29.615Z,93449.75
2023-01-17T10:35:57.041Z,93456.75
2023-01-17T10:38:30.039Z,93469.31
2023-01-17T10:41:02.588Z,93471.72
2023-01-17T10:43:58.638Z,93477.22
2023-01-17T10:46:32.632Z,93489.53
2023-01-17T10:49:01.250Z,93480.44
2023-01-17T10:51:30.766Z,93478.81
2023-01-17T10:54:15.973Z,93478.69
2023-01-17T10:56:42.512Z,93486.03
2023-01-17T10:59:27.742Z,93491.81
2023-01-17T11:01:54.256Z,93494.09
2023-01-17T11:04:27.024Z,93489.97
2023-01-17T11:07:19.858Z,93489.38
2023-01-17T11:09:51.394Z,93488.38
2023-01-17T11:12:32.582Z,93472.91
2023-01-17T11:15:10.957Z,93475.19
2023-01-17T11:17:48.988Z,93474.84
2023-01-17T11:20:19.914Z,93480.75
2023-01-17T11:23:01.570Z,93471.97
2023-01-17T11:25:29.444Z,93482.91
2023-01-17T11:28:22.218Z,93492.34
2023-01-17T11:30:56.164Z,93489.06
2023-01-17T11:33:31.893Z,93474.06
2023-01-17T11:35:58.492Z,93478.47
2023-01-17T11:38:25.277Z,93475.75
2023-01-17T11:40:53.999Z,93477.78
2023-01-17T11:43:24.532Z,93475.28
2023-01-17T11:46:01.566Z,93466.53
2023-01-17T11:48:33.354Z,93459.47
2023-01-17T11:51:00.197Z,93458.34
2023-01-17T11:53:29.124Z,93444.53
2023-01-17T11:55:58.594Z,93440.44
2023-01-17T11:58:26.844Z,93449.66
2023-01-17T12:00:58.526Z,93450.00
2023-01-17T12:03:41.888Z,93443.84
2023-01-17T12:06:20.521Z,93442.38
2023-01-17T12:08:56.282Z,93438.19
2023-01-17T12:11:30.765Z,93438.59
2023-01-17T12:14:03.455Z,93438.41
2023-01-17T12:16:45.189Z,93445.34
2023-01-17T12:19:18.525Z,93446.00
2023-01-17T12:21:58.286Z,93446.25
2023-01-17T12:24:24.731Z,93444.19
2023-01-17T12:27:05.636Z,93446.81
2023-01-17T12:29:43.669Z,93455.81
2023-01-17T12:32:25.444Z,93458.66
2023-01-17T12:34:59.096Z,93462.75
2023-01-17T12:37:39.512Z,93455.56
2023-01-17T12:40:11.842Z,93458.28
2023-01-17T12:42:41.020Z,93461.47
2023-01-17T12:45:09.795Z,93443.72
2023-01-17T12:47:39.790Z,93434.38
2023-01-17T12:50:14.569Z,93443.13
2023-01-17T12:52:53.322Z,93442.22
2023-01-17T12:55:38.131Z,93432.31
2023-01-17T12:58:07.170Z,93423.78
2023-01-17T13:00:37.625Z,93433.09
2023-01-17T13:03:07.267Z,93425.47
2023-01-17T13:05:41.836Z,93430.97
2023-01-17T13:08:26.792Z,93427.66
2023-01-17T13:11:02.520Z,93434.16
2023-01-17T13:13:29.924Z,93438.81
2023-01-17T13:16:02.492Z,93443.91
2023-01-17T13:18:29.971Z,93459.66
2023-01-17T13:21:19.506Z,93465.69
2023-01-17T13:24:04.101Z,93467.63
2023-01-17T13:26:36.576Z,93473.19
2023-01-17T13:29:12.100Z,93478.66
2023-01-17T13:31:58.860Z,93485.03
2023-01-17T13:34:25.287Z,93495.28
2023-01-17T13:36:51.731Z,93493.47
2023-01-17T13:39:37.119Z,93490.03
2023-01-17T13:42:10.598Z,93504.75
2023-01-17T13:44:37.497Z,93516.84
2023-01-17T13:47:06.631Z,93522.09
2023-01-17T13:49:35.081Z,93532.25
2023-01-17T13:52:10.896Z,93532.25
2023-01-17T13:54:51.390Z,93535.44
2023-01-17T13:57:29.728Z,93537.38
2023-01-17T13:59:57.199Z,93549.34
2023-01-17T14:02:32.943Z,93541.72
2023-01-17T14:05:20.553Z,93543.28
2023-01-17T14:07:47.658Z,93552.19
2023-01-17T14:10:32.793Z,93559.38
2023-01-17T14:12:59.436Z,93564.38
2023-01-17T14:15:27.186Z,93557.22
2023-01-17T14:17:58.484Z,93556.66
2023-01-17T14:20:28.069Z,93569.06
2023-01-17T14:23:02.133Z,93590.72
2023-01-17T14:25:30.142Z,93591.97
2023-01-17T14:27:59.265Z,93592.19
2023-01-17T14:30:34.078Z,93596.44
2023-01-17T14:33:08.834Z,93593.47
2023-01-17T14:35:40.704Z,93598.59
2023-01-17T14:38:21.576Z,93592.75
2023-01-17T14:40:57.189Z,93596.84
2023-01-17T14:43:25.032Z,93600.50
2023-01-17T14:46:02.237Z,93602.53
2023-01-17T14:48:28.913Z,93603.19
2023-01-17T14:50:58.623Z,93602.50
2023-01-17T14:53:28.645Z,93614.56
2023-01-17T14:56:03.026Z,93613.41
2023-01-17T14:58:30.817Z,93613.63
2023-01-17T15:01:06.844Z,93625.81
2023-01-17T15:03:35.459Z,93631.72
2023-01-17T15:06:22.330Z,93643.00
2023-01-17T15:08:49.379Z,93647.06
2023-01-17T15:11:31.550Z,93661.19
2023-01-17T15:13:59.324Z,93664.28
2023-01-17T15:16:30.902Z,93663.28
2023-01-17T15:18:57.670Z,93659.75
2023-01-17T15:21:28.610Z,93658.75
2023-01-17T15:24:03.584Z,93648.84
2023-01-17T15:26:33.305Z,93649.06
2023-01-17T15:29:05.208Z,93654.88
2023-01-17T15:31:42.649Z,93655.25
2023-01-17T15:34:14.804Z,93656.81
2023-01-17T15:36:41.318Z,93661.16
2023-01-17T15:39:18.276Z,93644.94
2023-01-17T15:41:44.756Z,93643.91
2023-01-17T15:44:49.971Z,93638.81
2023-01-17T15:47:33.371Z,93630.50
2023-01-17T15:50:00.956Z,93629.50
2023-01-17T15:52:28.159Z,93637.94
2023-01-17T15:54:59.259Z,93625.63
2023-01-17T15:57:27.208Z,93616.19
2023-01-17T16:00:07.695Z,93594.44
2023-01-17T16:02:34.183Z,93605.94
2023-01-17T16:05:02.095Z,93612.19
2023-01-17T16:07:34.046Z,93609.56
2023-01-17T16:10:20.277Z,93598.19
2023-01-17T16:12:53.257Z,93604.19
2023-01-17T16:15:26.228Z,93600.31
2023-01-17T16:17:55.323Z,93588.22
2023-01-17T16:20:33.211Z,93595.09
2023-01-17T16:23:00.526Z,93583.00
2023-01-17T16:25:32.397Z,93593.69
2023-01-17T16:27:59.315Z,93598.34
2023-01-17T16:30:26.153Z,93609.63
2023-01-17T16:32:52.619Z,93604.38
2023-01-17T16:35:20.923Z,93604.38
2023-01-17T16:37:54.955Z,93604.25
2023-01-17T16:40:23.087Z,93596.41
2023-01-17T16:42:49.519Z,93588.53
2023-01-17T16:45:16.288Z,93585.47
2023-01-17T16:47:43.601Z,93580.03
2023-01-17T16:50:11.529Z,93569.78
2023-01-17T16:52:38.112Z,93560.13
2023-01-17T16:55:09.163Z,93564.53
2023-01-17T16:57:35.784Z,93559.31
2023-01-17T17:00:02.374Z,93561.91
2023-01-17T17:02:29.124Z,93559.31
2023-01-17T17:04:55.580Z,93553.13
2023-01-17T17:07:22.219Z,93562.59
2023-01-17T17:09:48.764Z,93568.19
2023-01-17T17:12:15.205Z,93564.53
2023-01-17T17:14:41.688Z,93570.50
2023-01-17T17:17:08.424Z,93582.84
2023-01-17T17:19:34.927Z,93589.47
2023-01-17T17:22:02.061Z,93596.91
2023-01-17T17:24:28.522Z,93607.69
2023-01-17T17:26:54.961Z,93608.97
2023-01-17T17:29:21.421Z,93601.50
2023-01-17T17:31:47.909Z,93603.69
2023-01-17T17:34:14.968Z,93603.69
2023-01-17T17:36:41.558Z,93597.75
2023-01-17T17:39:11.329Z,93572.91
2023-01-17T17:41:40.823Z,93578.59
2023-01-17T17:44:07.319Z,93583.13
2023-01-17T17:46:34.951Z,93566.25
2023-01-17T17:49:01.741Z,93560.91
2023-01-17T17:51:35.832Z,93557.16
2023-01-17T17:54:03.769Z,93545.88
2023-01-17T17:56:30.689Z,93553.16
2023-01-17T17:58:57.487Z,93549.75
2023-01-17T18:01:24.450Z,93551.56
2023-01-17T18:03:51.861Z,93564.88
2023-01-17T18:06:18.982Z,93565.91
2023-01-17T18:08:45.774Z,93560.53
2023-01-17T18:11:14.962Z,93572.63
2023-01-17T18:13:42.789Z,93565.31
2023-01-17T18:16:11.114Z,93562.91
2023-01-17T18:18:39.209Z,93547.56
2023-01-17T18:21:12.976Z,93548.16
2023-01-17T18:23:40.698Z,93539.13
2023-01-17T18:26:15.579Z,93535.72
2023-01-17T18:28:42.068Z,93526.63
2023-01-17T18:31:08.552Z,93525.50
2023-01-17T18:33:38.167Z,93514.78
2023-01-17T18:36:05.095Z,93523.16
2023-01-17T18:38:38.177Z,93524.78
2023-01-17T18:41:08.898Z,93523.75
2023-01-17T18:43:35.563Z,93523.97
2023-01-17T18:46:02.050Z,93530.59
2023-01-17T18:48:28.619Z,93533.66
2023-01-17T18:50:55.895Z,93529.56
2023-01-17T18:53:22.335Z,93531.59
2023-01-17T18:55:52.111Z,93535.97
2023-01-17T18:58:18.601Z,93545.63
2023-01-17T19:00:45.075Z,93545.97
2023-01-17T19:03:11.544Z,93547.13
2023-01-17T19:05:38.046Z,93548.72
2023-01-17T19:08:04.482Z,93558.75
2023-01-17T19:10:30.904Z,93554.53
2023-01-17T19:12:57.379Z,93556.13
2023-01-17T19:15:23.851Z,93549.88
2023-01-17T19:17:50.278Z,93547.03
2023-01-17T19:20:16.936Z,93558.75
2023-01-17T19:22:43.374Z,93570.03
2023-01-17T19:25:09.821Z,93572.06
2023-01-17T19:27:36.334Z,93580.50
2023-01-17T19:30:02.830Z,93575.03
2023-01-17T19:32:29.276Z,93564.56
2023-01-17T19:34:55.698Z,93565.38
2023-01-17T19:37:22.175Z,93574.00
2023-01-17T19:39:49.275Z,93566.38
2023-01-17T19:42:15.875Z,93570.38
2023-01-17T19:44:43.048Z,93564.91
2023-01-17T19:47:12.725Z,93555.25
2023-01-17T19:49:44.292Z,93555.00
2023-01-17T19:52:10.759Z,93545.91
2023-01-17T19:54:37.213Z,93542.50
2023-01-17T19:57:03.696Z,93550.34
2023-01-17T19:59:30.127Z,93546.94
2023-01-17T20:01:56.932Z,93539.88
2023-01-17T20:04:23.481Z,93528.38
2023-01-17T20:06:50.010Z,93529.59
2023-01-17T20:09:16.826Z,93530.19
2023-01-17T20:11:45.449Z,93533.84
2023-01-17T20:14:15.267Z,93527.78
2023-01-17T20:16:43.401Z,93521.75
2023-01-17T20:19:09.977Z,93520.16
2023-01-17T20:21:36.488Z,93502.75
2023-01-17T20:24:05.799Z,93491.56
2023-01-17T20:26:36.453Z,93478.84
2023-01-17T20:29:10.051Z,93476.22
2023-01-17T20:31:40.025Z,93469.59
2023-01-17T20:34:08.069Z,93458.34
2023-01-17T20:36:34.650Z,93451.50
2023-01-17T20:39:02.559Z,93446.47
2023-01-17T20:41:30.932Z,93437.28
2023-01-17T20:43:58.790Z,93430.19
2023-01-17T20:46:26.435Z,93424.72
2023-01-17T20:48:54.177Z,93418.25
2023-01-17T20:51:21.705Z,93425.06
2023-01-17T20:53:51.532Z,93418.00
2023-01-17T20:56:18.884Z,93404.91
2023-01-17T20:58:45.607Z,93405.72
2023-01-17T21:01:13.197Z,93404.69
2023-01-17T21:03:39.992Z,93393.22
2023-01-17T21:06:07.711Z,93391.38
2023-01-17T21:08:35.879Z,93382.16
2023-01-17T21:11:03.199Z,93382.38
2023-01-17T21:13:29.988Z,93383.16
2023-01-17T21:15:56.421Z,93374.06
2023-01-17T21:18:23.561Z,93374.06
2023-01-17T21:20:50.582Z,93361.22
2023-01-17T21:23:20.183Z,93362.44
2023-01-17T21:25:55.534Z,93357.91
2023-01-17T21:28:22.532Z,93350.28
2023-01-17T21:30:49.976Z,93343.19
2023-01-17T21:33:17.103Z,93341.38
2023-01-17T21:35:43.768Z,93336.28
2023-01-17T21:38:10.433Z,93333.44
2023-01-17T21:40:36.901Z,93328.75
2023-01-17T21:43:03.461Z,93321.59
2023-01-17T21:45:32.115Z,93322.38
2023-01-17T21:47:58.996Z,93305.56
2023-01-17T21:50:33.247Z,93299.66
2023-01-17T21:53:00.177Z,93299.06
2023-01-17T21:55:45.435Z,93291.00
2023-01-17T21:58:31.364Z,93288.72
2023-01-17T22:01:07.827Z,93281.31
2023-01-17T22:03:34.878Z,93279.81
2023-01-17T22:06:01.586Z,93281.44
2023-01-17T22:08:37.942Z,93273.34
2023-01-17T22:11:12.412Z,93271.97
2023-01-17T22:13:39.322Z,93266.63
2023-01-17T22:16:07.229Z,93254.91
2023-01-17T22:18:36.092Z,93255.38
2023-01-17T22:21:28.688Z,93238.19
2023-01-17T22:23:59.530Z,93240.81
2023-01-17T22:26:27.599Z,93223.63
2023-01-17T22:28:54.831Z,93224.63
2023-01-17T22:31:22.894Z,93213.63
2023-01-17T22:33:56.722Z,93209.31
2023-01-17T22:36:23.757Z,93198.50
2023-01-17T22:38:50.688Z,93197.69
2023-01-17T22:41:20.005Z,93193.25
2023-01-17T22:43:48.108Z,93186.31
2023-01-17T22:46:15.939Z,93179.28
2023-01-17T22:48:42.478Z,93179.03
2023-01-17T22:51:10.915Z,93174.13
2023-01-17T22:53:41.788Z,93173.66
2023-01-17T22:56:13.375Z,93168.44
2023-01-17T22:58:44.566Z,93168.75
2023-01-17T23:01:12.726Z,93157.72
2023-01-17T23:03:42.765Z,93162.38
2023-01-17T23:06:10.633Z,93154.66
2023-01-17T23:08:37.308Z,93156.88
2023-01-17T23:11:32.514Z,93138.53
2023-01-17T23:13:58.945Z,93139.00
2023-01-17T23:16:43.962Z,93132.97
2023-01-17T23:19:22.177Z,93121.81
2023-01-17T23:22:08.318Z,93113.31
2023-01-17T23:24:34.751Z,93116.03
2023-01-17T23:27:19.630Z,93104.06
2023-01-17T23:29:46.056Z,93103.81
2023-01-17T23:32:12.557Z,93100.66
2023-01-17T23:34:39.020Z,93098.03
2023-01-17T23:37:05.453Z,93088.09
2023-01-17T23:39:31.880Z,93083.44
2023-01-17T23:42:17.201Z,93083.69
2023-01-17T23:44:43.663Z,93073.78
2023-01-17T23:47:10.105Z,93073.31
2023-01-17T23:49:36.561Z,93068.88
2023-01-17T23:52:04.815Z,93063.88
2023-01-17T23:54:32.072Z,93062.19
2023-01-17T23:56:58.551Z,93066.06
2023-01-17T23:59:24.948Z,93055.66
